createdAt,value
2019-02-04T00:00:29.716Z,14.55
2019-02-04T00:02:57.201Z,14.47
2019-02-04T00:05:24.507Z,14.45
2019-02-04T00:07:51.863Z,14.45
2019-02-04T00:10:19.134Z,14.70
2019-02-04T00:12:46.434Z,15.55
2019-02-04T00:15:14.046Z,15.50
2019-02-04T00:17:41.347Z,14.68
2019-02-04T00:20:09.518Z,15.35
2019-02-04T00:22:36.833Z,15.50
2019-02-04T00:25:04.607Z,14.75
2019-02-04T00:27:31.921Z,14.93
2019-02-04T00:29:59.228Z,14.85
2019-02-04T00:32:26.822Z,15.55
2019-02-04T00:34:54.142Z,15.58
2019-02-04T00:37:21.430Z,16.55
2019-02-04T00:39:48.742Z,16.48
2019-02-04T00:42:16.067Z,15.85
2019-02-04T00:44:43.350Z,15.50
2019-02-04T00:47:10.642Z,15.93
2019-02-04T00:49:38.261Z,15.15
2019-02-04T00:52:05.567Z,16.05
2019-02-04T00:54:32.984Z,15.00
2019-02-04T00:57:00.297Z,15.40
2019-02-04T00:59:27.616Z,15.55
2019-02-04T01:01:54.980Z,15.75
2019-02-04T01:04:22.270Z,16.60
2019-02-04T01:06:50.089Z,16.25
2019-02-04T01:09:17.394Z,15.55
2019-02-04T01:11:44.693Z,15.55
2019-02-04T01:14:12.026Z,17.13
2019-02-04T01:16:39.322Z,14.93
2019-02-04T01:19:06.630Z,15.13
2019-02-04T01:21:33.943Z,15.10
2019-02-04T01:24:02.901Z,15.98
2019-02-04T01:26:30.218Z,15.97
2019-02-04T01:28:57.523Z,15.60
2019-02-04T01:31:24.838Z,15.20
2019-02-04T01:33:52.234Z,14.10
2019-02-04T01:36:19.530Z,13.83
2019-02-04T01:38:46.854Z,14.45
2019-02-04T01:41:14.187Z,15.50
2019-02-04T01:43:41.605Z,15.78
2019-02-04T01:46:08.927Z,16.60
2019-02-04T01:48:36.227Z,16.57
2019-02-04T01:51:03.565Z,15.32
2019-02-04T01:53:30.861Z,17.45
2019-02-04T01:55:58.246Z,16.02
2019-02-04T01:58:25.541Z,15.68
2019-02-04T02:00:52.888Z,16.77
2019-02-04T02:03:20.202Z,15.48
2019-02-04T02:05:47.513Z,16.93
2019-02-04T02:08:14.804Z,15.70
2019-02-04T02:10:42.129Z,16.33
2019-02-04T02:13:09.420Z,16.07
2019-02-04T02:15:36.708Z,18.35
2019-02-04T02:18:04.041Z,17.70
2019-02-04T02:20:31.377Z,16.40
2019-02-04T02:22:58.695Z,18.07
2019-02-04T02:25:25.986Z,17.75
2019-02-04T02:27:53.286Z,17.42
2019-02-04T02:30:22.777Z,18.67
2019-02-04T02:32:50.076Z,17.85
2019-02-04T02:35:17.396Z,18.02
2019-02-04T02:37:44.717Z,17.40
2019-02-04T02:40:25.631Z,16.00
2019-02-04T02:42:52.926Z,17.40
2019-02-04T02:45:20.429Z,16.62
2019-02-04T02:47:47.739Z,16.05
2019-02-04T02:50:15.039Z,16.80
2019-02-04T02:52:42.346Z,15.72
2019-02-04T02:55:11.533Z,17.20
2019-02-04T02:57:38.834Z,16.62
2019-02-04T03:00:10.454Z,16.67
2019-02-04T03:02:37.772Z,16.23
2019-02-04T03:05:06.877Z,16.83
2019-02-04T03:07:34.170Z,15.75
2019-02-04T03:10:01.493Z,11.50
2019-02-04T03:12:28.813Z,15.10
2019-02-04T03:14:56.126Z,14.65
2019-02-04T03:17:24.223Z,15.08
2019-02-04T03:19:51.546Z,15.15
2019-02-04T03:22:18.848Z,14.80
2019-02-04T03:24:46.149Z,14.95
2019-02-04T03:27:13.543Z,15.48
2019-02-04T03:29:40.839Z,18.25
2019-02-04T03:32:08.168Z,16.97
2019-02-04T03:34:35.661Z,16.52
2019-02-04T03:37:02.971Z,16.45
2019-02-04T03:39:30.277Z,19.23
2019-02-04T03:41:57.590Z,17.63
2019-02-04T03:44:24.913Z,18.05
2019-02-04T03:46:52.213Z,16.05
2019-02-04T03:49:19.520Z,18.97
2019-02-04T03:51:46.850Z,18.37
2019-02-04T03:54:14.166Z,20.43
2019-02-04T03:56:41.459Z,18.07
2019-02-04T03:59:08.782Z,18.75
2019-02-04T04:01:36.085Z,17.80
2019-02-04T04:04:03.382Z,18.37
2019-02-04T04:06:31.007Z,18.47
2019-02-04T04:08:58.311Z,17.73
2019-02-04T04:11:25.610Z,16.37
2019-02-04T04:13:52.938Z,16.97
2019-02-04T04:16:20.225Z,18.45
2019-02-04T04:18:47.529Z,17.42
2019-02-04T04:21:14.841Z,17.48
2019-02-04T04:33:29.087Z,17.87
2019-02-04T04:35:56.369Z,17.37
2019-02-04T04:38:23.688Z,18.62
2019-02-04T04:40:50.990Z,18.40
2019-02-04T04:43:18.312Z,17.12
2019-02-04T04:45:45.605Z,18.45
2019-02-04T04:48:12.904Z,18.50
2019-02-04T04:50:40.222Z,18.03
2019-02-04T04:53:07.517Z,17.80
2019-02-04T04:55:34.846Z,18.42
2019-02-04T04:58:02.135Z,18.60
2019-02-04T05:00:30.300Z,17.35
2019-02-04T05:02:57.689Z,17.50
2019-02-04T05:05:24.999Z,18.47
2019-02-04T05:07:52.310Z,18.90
2019-02-04T05:10:20.306Z,18.20
2019-02-04T05:12:47.602Z,17.48
2019-02-04T05:15:16.127Z,17.23
2019-02-04T05:17:43.510Z,18.60
2019-02-04T05:20:11.788Z,17.42
2019-02-04T05:22:39.110Z,19.80
2019-02-04T05:25:07.079Z,20.00
2019-02-04T05:27:34.419Z,21.55
2019-02-04T05:30:01.722Z,19.52
2019-02-04T05:32:29.426Z,19.90
2019-02-04T05:34:57.622Z,20.43
2019-02-04T05:37:24.971Z,20.30
2019-02-04T05:39:52.255Z,20.68
2019-02-04T05:42:19.573Z,19.23
2019-02-04T05:44:46.913Z,20.40
2019-02-04T05:47:14.219Z,21.80
2019-02-04T05:49:41.721Z,19.62
2019-02-04T05:52:09.022Z,20.77
2019-02-04T05:54:36.345Z,20.50
2019-02-04T05:57:03.656Z,21.68
2019-02-04T05:59:30.974Z,20.40
2019-02-04T06:01:58.262Z,21.20
2019-02-04T06:04:25.560Z,19.42
2019-02-04T06:06:53.186Z,18.97
2019-02-04T06:09:20.482Z,19.77
2019-02-04T06:11:47.801Z,19.37
2019-02-04T06:14:15.097Z,18.87
2019-02-04T06:24:02.385Z,20.50
2019-02-04T06:26:29.692Z,20.88
2019-02-04T06:28:56.987Z,19.10
2019-02-04T06:31:24.307Z,20.15
2019-02-04T06:33:51.607Z,19.50
2019-02-04T06:36:18.917Z,21.10
2019-02-04T06:38:46.214Z,20.50
2019-02-04T06:41:13.633Z,20.57
2019-02-04T06:43:40.926Z,21.35
2019-02-04T06:46:08.233Z,20.60
2019-02-04T06:48:35.525Z,20.97
2019-02-04T06:51:02.903Z,21.30
2019-02-04T06:53:30.214Z,21.52
2019-02-04T06:55:57.527Z,23.35
2019-02-04T06:58:25.164Z,27.17
2019-02-04T07:00:52.443Z,27.95
2019-02-04T07:03:19.749Z,23.57
2019-02-04T07:05:47.050Z,22.48
2019-02-04T07:08:14.375Z,20.85
2019-02-04T07:10:41.684Z,20.65
2019-02-04T07:13:09.110Z,21.07
2019-02-04T07:15:36.828Z,19.90
2019-02-04T07:18:04.140Z,21.02
2019-02-04T07:20:31.447Z,18.92
2019-02-04T07:22:58.742Z,19.70
2019-02-04T07:25:26.068Z,20.25
2019-02-04T07:27:53.374Z,20.37
2019-02-04T07:30:21.743Z,19.12
2019-02-04T07:32:49.134Z,22.15
2019-02-04T07:35:17.303Z,19.40
2019-02-04T07:37:44.610Z,18.67
2019-02-04T07:40:13.555Z,19.95
2019-02-04T07:42:40.877Z,18.12
2019-02-04T07:45:09.645Z,20.08
2019-02-04T07:47:36.952Z,19.23
2019-02-04T07:50:05.732Z,20.05
2019-02-04T07:52:33.114Z,19.57
2019-02-04T07:55:00.440Z,19.27
2019-02-04T07:57:27.738Z,20.75
2019-02-04T07:59:55.039Z,20.27
2019-02-04T08:02:22.352Z,21.62
2019-02-04T08:04:49.652Z,20.85
2019-02-04T08:07:17.356Z,19.60
2019-02-04T08:09:44.648Z,20.43
2019-02-04T08:12:11.946Z,20.17
2019-02-04T08:14:39.266Z,20.60
2019-02-04T08:17:06.549Z,18.07
2019-02-04T08:19:33.845Z,19.23
2019-02-04T08:22:01.166Z,19.42
2019-02-04T08:24:28.866Z,18.70
2019-02-04T08:26:56.184Z,19.42
2019-02-04T08:29:23.478Z,21.50
2019-02-04T08:31:50.793Z,18.07
2019-02-04T08:34:18.106Z,17.98
2019-02-04T08:36:46.441Z,19.10
2019-02-04T08:39:13.905Z,19.10
2019-02-04T08:41:41.626Z,19.00
2019-02-04T08:44:08.934Z,17.48
2019-02-04T08:46:36.265Z,16.75
2019-02-04T08:49:03.571Z,16.82
2019-02-04T08:51:30.873Z,16.80
2019-02-04T08:53:58.195Z,18.02
2019-02-04T08:56:25.490Z,18.98
2019-02-04T08:58:52.810Z,18.05
2019-02-04T09:01:20.310Z,15.28
2019-02-04T09:03:47.654Z,18.35
2019-02-04T09:06:14.943Z,17.50
2019-02-04T09:08:42.274Z,16.52
2019-02-04T09:11:09.582Z,17.10
2019-02-04T09:13:36.895Z,17.12
2019-02-04T09:16:04.195Z,16.40
2019-02-04T09:18:31.490Z,16.60
2019-02-04T09:20:58.781Z,15.95
2019-02-04T09:23:26.098Z,16.20
2019-02-04T09:25:53.402Z,16.37
2019-02-04T09:28:20.713Z,15.83
2019-02-04T09:30:48.042Z,16.10
2019-02-04T09:33:15.338Z,16.35
2019-02-04T09:35:42.635Z,17.05
2019-02-04T09:38:10.252Z,15.90
2019-02-04T09:40:38.939Z,15.75
2019-02-04T09:43:06.510Z,16.77
2019-02-04T09:45:33.825Z,16.77
2019-02-04T09:48:01.126Z,16.97
2019-02-04T09:50:35.953Z,17.10
2019-02-04T09:53:03.269Z,17.55
2019-02-04T09:55:34.347Z,17.50
2019-02-04T09:58:01.643Z,18.50
2019-02-04T10:00:30.102Z,18.10
2019-02-04T10:02:57.425Z,18.30
2019-02-04T10:05:24.716Z,17.85
2019-02-04T10:07:52.033Z,17.52
2019-02-04T10:10:21.210Z,19.30
2019-02-04T10:12:48.529Z,16.75
2019-02-04T10:15:17.131Z,17.07
2019-02-04T10:17:44.435Z,16.95
2019-02-04T10:20:13.420Z,18.23
2019-02-04T10:22:40.700Z,17.07
2019-02-04T10:25:09.884Z,18.77
2019-02-04T10:27:37.341Z,18.35
2019-02-04T10:30:06.323Z,19.10
2019-02-04T10:32:33.644Z,18.10
2019-02-04T10:35:00.961Z,17.90
2019-02-04T10:37:28.278Z,18.85
2019-02-04T10:39:55.557Z,18.02
2019-02-04T10:42:23.346Z,18.67
2019-02-04T10:44:50.826Z,16.73
2019-02-04T10:47:18.190Z,18.70
2019-02-04T10:49:45.567Z,17.80
2019-02-04T10:52:12.940Z,18.65
2019-02-04T10:54:40.265Z,17.35
2019-02-04T10:57:07.560Z,16.77
2019-02-04T10:59:35.262Z,17.55
2019-02-04T11:02:02.593Z,18.70
2019-02-04T11:04:29.884Z,18.75
2019-02-04T11:06:57.188Z,15.53
2019-02-04T11:09:24.521Z,18.07
2019-02-04T11:11:51.797Z,17.10
2019-02-04T11:14:19.115Z,17.62
2019-02-04T11:16:46.810Z,16.27
2019-02-04T11:19:14.105Z,17.45
2019-02-04T11:21:41.481Z,14.25
2019-02-04T11:24:08.808Z,14.73
2019-02-04T11:26:36.146Z,14.03
2019-02-04T11:29:03.709Z,14.10
2019-02-04T11:31:30.984Z,15.45
2019-02-04T11:33:58.746Z,14.93
2019-02-04T11:36:26.024Z,14.07
2019-02-04T11:38:53.330Z,13.50
2019-02-04T11:41:20.682Z,13.03
2019-02-04T11:43:47.944Z,10.75
2019-02-04T11:46:15.268Z,11.12
2019-02-04T11:51:14.794Z,10.03
2019-02-04T11:53:42.108Z,9.20
2019-02-04T11:56:09.418Z,8.85
2019-02-04T11:58:36.836Z,8.85
2019-02-04T12:01:04.459Z,8.68
2019-02-04T12:03:32.069Z,11.35
2019-02-04T12:05:59.316Z,7.45
2019-02-04T12:08:27.777Z,8.45
2019-02-04T12:10:56.692Z,8.15
2019-02-04T12:13:24.429Z,14.50
2019-02-04T12:15:52.166Z,7.75
2019-02-04T12:18:19.469Z,9.15
2019-02-04T12:20:46.767Z,8.65
2019-02-04T12:23:14.096Z,9.80
2019-02-04T12:25:41.386Z,7.28
2019-02-04T12:28:08.668Z,7.42
2019-02-04T12:30:37.619Z,8.35
2019-02-04T12:33:05.777Z,6.10
2019-02-04T12:35:33.070Z,21.30
2019-02-04T12:38:00.377Z,3.70
2019-02-04T12:40:27.669Z,7.62
2019-02-04T12:42:55.173Z,7.30
2019-02-04T12:45:24.158Z,4.92
2019-02-04T12:47:51.629Z,6.05
2019-02-04T12:50:18.917Z,4.72
2019-02-04T12:52:46.255Z,3.75
2019-02-04T12:55:15.208Z,6.45
2019-02-04T12:57:42.805Z,8.23
2019-02-04T13:00:14.490Z,4.65
2019-02-04T13:02:41.770Z,3.77
2019-02-04T13:05:10.685Z,4.25
2019-02-04T13:07:38.000Z,5.15
2019-02-04T13:10:06.166Z,5.53
2019-02-04T13:12:33.468Z,4.03
2019-02-04T13:15:00.789Z,3.22
2019-02-04T13:17:28.072Z,4.53
2019-02-04T13:19:55.393Z,3.92
2019-02-04T13:22:22.691Z,14.75
2019-02-04T13:24:49.986Z,4.30
2019-02-04T13:27:17.288Z,6.55
2019-02-04T13:29:44.594Z,14.85
2019-02-04T13:32:12.085Z,14.23
2019-02-04T13:34:39.435Z,3.98
2019-02-04T13:37:06.761Z,11.30
2019-02-04T13:39:34.178Z,20.62
2019-02-04T13:42:01.482Z,3.62
2019-02-04T13:44:28.764Z,4.58
2019-02-04T13:46:56.090Z,5.10
2019-02-04T13:49:23.592Z,5.70
2019-02-04T13:51:57.659Z,5.22
2019-02-04T13:54:19.845Z,8.48
2019-02-04T13:56:47.156Z,3.83
2019-02-04T13:59:14.465Z,3.90
2019-02-04T14:01:41.786Z,12.68
2019-02-04T14:04:09.082Z,4.80
2019-02-04T14:06:36.374Z,7.67
2019-02-04T14:09:04.439Z,9.33
2019-02-04T14:11:31.740Z,13.75
2019-02-04T14:13:59.043Z,5.62
2019-02-04T14:16:26.354Z,5.12
2019-02-04T14:18:53.659Z,8.88
2019-02-04T14:21:21.241Z,5.15
2019-02-04T14:23:48.567Z,5.25
2019-02-04T14:26:15.855Z,6.72
2019-02-04T14:28:43.146Z,8.03
2019-02-04T14:31:10.484Z,5.67
2019-02-04T14:33:37.787Z,5.92
2019-02-04T14:36:05.154Z,6.00
2019-02-04T14:38:32.865Z,4.65
2019-02-04T14:41:00.161Z,5.55
2019-02-04T14:43:28.891Z,6.70
2019-02-04T14:46:00.516Z,5.20
2019-02-04T14:48:47.474Z,7.78
2019-02-04T14:51:22.498Z,18.87
2019-02-04T14:54:06.534Z,43.85
2019-02-04T14:56:35.591Z,9.53
2019-02-04T14:59:05.022Z,5.80
2019-02-04T15:01:36.888Z,5.80
2019-02-04T15:04:22.589Z,6.20
2019-02-04T15:06:54.655Z,6.72
2019-02-04T15:09:23.800Z,6.05
2019-02-04T15:12:09.567Z,6.50
2019-02-04T15:14:44.689Z,8.70
2019-02-04T15:17:16.404Z,6.62
2019-02-04T15:19:51.280Z,6.12
2019-02-04T15:22:36.958Z,5.80
2019-02-04T15:25:24.149Z,6.30
2019-02-04T15:27:55.760Z,5.60
2019-02-04T15:30:41.170Z,4.60
2019-02-04T15:33:13.203Z,5.65
2019-02-04T15:35:45.075Z,6.47
2019-02-04T15:38:16.934Z,6.53
2019-02-04T15:40:45.875Z,6.67
2019-02-04T15:43:29.757Z,6.35
2019-02-04T15:46:13.774Z,6.50
2019-02-04T15:48:42.715Z,6.37
2019-02-04T15:51:14.346Z,6.53
2019-02-04T15:53:41.641Z,7.10
2019-02-04T15:56:09.335Z,6.92
2019-02-04T15:58:36.646Z,7.28
2019-02-04T16:01:04.805Z,7.35
2019-02-04T16:03:32.285Z,7.60
2019-02-04T16:05:59.595Z,7.33
2019-02-04T16:08:26.907Z,7.90
2019-02-04T16:10:54.215Z,7.85
2019-02-04T16:13:21.808Z,8.50
2019-02-04T16:15:49.108Z,9.65
2019-02-04T16:18:16.419Z,8.15
2019-02-04T16:20:43.719Z,9.15
2019-02-04T16:23:11.029Z,10.08
2019-02-04T16:25:38.330Z,9.73
2019-02-04T16:28:05.626Z,9.88
2019-02-04T16:30:33.253Z,10.90
2019-02-04T16:33:00.540Z,9.55
2019-02-04T16:35:27.838Z,12.98
2019-02-04T16:37:55.154Z,10.08
2019-02-04T16:40:22.537Z,10.15
2019-02-04T16:42:49.824Z,11.35
2019-02-04T16:45:21.479Z,10.63
2019-02-04T16:47:49.268Z,14.38
2019-02-04T16:50:17.953Z,14.00
2019-02-04T16:52:48.116Z,13.15
2019-02-04T16:55:14.210Z,12.45
2019-02-04T16:57:41.539Z,11.65
2019-02-04T17:00:10.518Z,12.90
2019-02-04T17:02:37.801Z,12.18
2019-02-04T17:05:06.952Z,12.40
2019-02-04T17:07:34.255Z,11.40
2019-02-04T17:10:01.574Z,11.50
2019-02-04T17:12:28.865Z,11.50
2019-02-04T17:14:56.161Z,11.40
2019-02-04T17:17:23.508Z,11.90
2019-02-04T17:19:50.783Z,12.93
2019-02-04T17:22:18.188Z,12.30
2019-02-04T17:24:45.516Z,11.48
2019-02-04T17:27:12.817Z,13.40
2019-02-04T17:29:40.144Z,12.05
2019-02-04T17:32:07.444Z,13.30
2019-02-04T17:34:34.747Z,13.93
2019-02-04T17:37:02.065Z,13.20
2019-02-04T17:39:29.670Z,13.60
2019-02-04T17:41:56.974Z,12.45
2019-02-04T17:44:24.307Z,12.98
2019-02-04T17:46:51.599Z,13.10
2019-02-04T17:49:18.914Z,13.88
2019-02-04T17:51:46.254Z,12.73
2019-02-04T17:54:13.540Z,14.15
2019-02-04T17:56:41.241Z,12.95
2019-02-04T17:59:08.563Z,13.38
2019-02-04T18:01:35.882Z,12.45
2019-02-04T18:04:03.192Z,12.78
2019-02-04T18:06:31.682Z,12.65
2019-02-04T18:08:59.096Z,13.18
2019-02-04T18:11:26.419Z,12.65
2019-02-04T18:13:54.133Z,12.95
2019-02-04T18:16:21.430Z,13.62
2019-02-04T18:18:48.765Z,14.00
2019-02-04T18:21:16.055Z,13.65
2019-02-04T18:23:46.003Z,14.03
2019-02-04T18:26:12.309Z,14.73
2019-02-04T18:28:40.871Z,14.55
2019-02-04T18:31:08.175Z,14.75
2019-02-04T18:33:35.797Z,14.68
2019-02-04T18:36:03.113Z,14.83
2019-02-04T18:38:30.430Z,15.90
2019-02-04T18:40:58.126Z,14.55
2019-02-04T18:43:25.417Z,16.00
2019-02-04T18:45:52.755Z,17.00
2019-02-04T18:48:20.061Z,18.12
2019-02-04T18:50:47.658Z,17.05
2019-02-04T18:53:14.984Z,17.23
2019-02-04T18:55:42.275Z,17.45
2019-02-04T18:58:09.602Z,18.05
2019-02-04T19:00:36.925Z,19.52
2019-02-04T19:03:16.618Z,19.10
2019-02-04T19:05:33.547Z,19.57
2019-02-04T19:08:00.855Z,18.10
2019-02-04T19:10:28.142Z,20.00
2019-02-04T19:12:55.449Z,19.85
2019-02-04T19:15:24.373Z,21.37
2019-02-04T19:17:52.475Z,20.57
2019-02-04T19:20:21.397Z,22.62
2019-02-04T19:22:48.706Z,20.60
2019-02-04T19:25:16.882Z,23.10
2019-02-04T19:27:44.561Z,22.85
2019-02-04T19:30:28.665Z,23.52
2019-02-04T19:32:57.699Z,21.23
2019-02-04T19:35:25.091Z,21.37
2019-02-04T19:37:52.395Z,20.65
2019-02-04T19:40:19.722Z,19.50
2019-02-04T19:42:47.028Z,19.35
2019-02-04T19:45:15.958Z,19.42
2019-02-04T19:47:43.282Z,19.85
2019-02-04T19:50:15.293Z,19.82
2019-02-04T19:52:42.617Z,20.62
2019-02-04T19:55:11.126Z,20.05
2019-02-04T19:57:38.507Z,21.65
2019-02-04T20:00:10.714Z,20.85
2019-02-04T20:02:38.004Z,22.30
2019-02-04T20:05:07.295Z,20.35
2019-02-04T20:07:34.595Z,21.23
2019-02-04T20:10:01.918Z,20.92
2019-02-04T20:12:29.205Z,20.97
2019-02-04T20:14:56.507Z,20.68
2019-02-04T20:17:23.819Z,20.35
2019-02-04T20:19:51.144Z,21.27
2019-02-04T20:22:19.256Z,22.17
2019-02-04T20:24:46.563Z,21.05
2019-02-04T20:27:13.888Z,26.60
2019-02-04T20:29:41.195Z,21.70
2019-02-04T20:32:08.487Z,20.77
2019-02-04T20:34:35.812Z,20.23
2019-02-04T20:37:03.135Z,20.82
2019-02-04T20:39:30.824Z,21.00
2019-02-04T20:41:58.126Z,20.85
2019-02-04T20:44:25.445Z,21.50
2019-02-04T20:46:52.737Z,20.48
2019-02-04T20:49:20.073Z,21.07
2019-02-04T20:51:47.414Z,19.07
2019-02-04T20:54:19.697Z,21.33
2019-02-04T20:56:43.677Z,21.52
2019-02-04T20:59:11.000Z,20.55
2019-02-04T21:01:38.253Z,18.90
2019-02-04T21:04:05.583Z,17.90
2019-02-04T21:06:32.884Z,19.52
2019-02-04T21:09:00.234Z,18.75
2019-02-04T21:11:27.529Z,18.67
2019-02-04T21:13:54.826Z,19.40
2019-02-04T21:16:22.359Z,19.55
2019-02-04T21:18:49.659Z,20.57
2019-02-04T21:21:16.954Z,21.70
2019-02-04T21:23:44.278Z,22.15
2019-02-04T21:26:11.581Z,21.42
2019-02-04T21:28:38.886Z,21.48
2019-02-04T21:31:06.222Z,21.30
2019-02-04T21:33:33.837Z,21.30
2019-02-04T21:36:01.138Z,21.30
2019-02-04T21:38:28.438Z,20.90
2019-02-04T21:40:55.768Z,20.70
2019-02-04T21:43:23.160Z,21.55
2019-02-04T21:45:51.086Z,21.05
2019-02-04T21:48:18.393Z,20.12
2019-02-04T21:50:45.930Z,19.65
2019-02-04T21:53:13.209Z,21.37
2019-02-04T21:55:40.507Z,21.30
2019-02-04T21:58:07.831Z,20.20
2019-02-04T22:00:38.613Z,21.82
2019-02-04T22:03:05.917Z,20.40
2019-02-04T22:05:33.997Z,19.20
2019-02-04T22:08:01.643Z,18.85
2019-02-04T22:10:29.956Z,20.50
2019-02-04T22:12:57.393Z,20.97
2019-02-04T22:15:24.709Z,21.15
2019-02-04T22:17:52.008Z,21.95
2019-02-04T22:20:19.784Z,21.65
2019-02-04T22:22:47.106Z,21.30
2019-02-04T22:25:19.718Z,22.87
2019-02-04T22:27:44.533Z,21.12
2019-02-04T22:30:13.465Z,20.80
2019-02-04T22:32:41.092Z,21.55
2019-02-04T22:35:08.580Z,21.80
2019-02-04T22:37:35.883Z,21.50
2019-02-04T22:40:04.779Z,22.62
2019-02-04T22:42:32.067Z,23.05
2019-02-04T22:44:59.385Z,22.65
2019-02-04T22:47:26.678Z,22.95
2019-02-04T22:49:54.001Z,22.10
2019-02-04T22:52:21.298Z,21.80
2019-02-04T22:54:48.605Z,21.33
2019-02-04T22:57:15.923Z,22.45
2019-02-04T22:59:43.226Z,23.80
2019-02-04T23:02:10.763Z,21.75
2019-02-04T23:04:38.060Z,23.75
2019-02-04T23:07:05.376Z,23.27
2019-02-04T23:09:32.684Z,22.25
2019-02-04T23:11:59.998Z,21.55
2019-02-04T23:14:27.294Z,23.47
2019-02-04T23:16:54.618Z,23.50
2019-02-04T23:19:22.030Z,24.85
2019-02-04T23:21:49.335Z,23.62
2019-02-04T23:24:16.678Z,23.90
2019-02-04T23:26:43.970Z,24.57
2019-02-04T23:29:11.320Z,23.70
2019-02-04T23:31:38.661Z,23.75
2019-02-04T23:34:05.960Z,25.80
2019-02-04T23:36:33.287Z,25.15
2019-02-04T23:39:00.606Z,25.80
2019-02-04T23:41:27.916Z,26.00
2019-02-04T23:43:55.250Z,27.25
2019-02-04T23:46:22.550Z,25.25
2019-02-04T23:48:49.856Z,26.70
2019-02-04T23:51:17.169Z,27.62
2019-02-04T23:53:44.574Z,26.52
2019-02-04T23:56:11.889Z,26.75
2019-02-04T23:58:40.487Z,26.02
